sensor_id;sensor_type;location;lat;lon;timestamp;P1;durP1;ratioP1;P2;durP2;ratioP2
20830;SDS011;10576;53.556;9.868;2022-08-19T00:01:29;9.33;;;8.33;;
20830;SDS011;10576;53.556;9.868;2022-08-19T00:03:56;9.03;;;7.93;;
20830;SDS011;10576;53.556;9.868;2022-08-19T00:06:22;9.27;;;8.38;;
20830;SDS011;10576;53.556;9.868;2022-08-19T00:08:48;8.88;;;8.02;;
20830;SDS011;10576;53.556;9.868;2022-08-19T00:11:16;9.00;;;8.10;;
20830;SDS011;10576;53.556;9.868;2022-08-19T00:13:42;11.20;;;9.00;;
20830;SDS011;10576;53.556;9.868;2022-08-19T00:16:08;10.07;;;9.07;;
20830;SDS011;10576;53.556;9.868;2022-08-19T00:18:34;11.20;;;10.00;;
20830;SDS011;10576;53.556;9.868;2022-08-19T00:21:00;12.30;;;11.02;;
20830;SDS011;10576;53.556;9.868;2022-08-19T00:23:26;12.20;;;10.98;;
20830;SDS011;10576;53.556;9.868;2022-08-19T00:25:52;12.07;;;10.82;;
20830;SDS011;10576;53.556;9.868;2022-08-19T00:28:18;11.35;;;10.35;;
20830;SDS011;10576;53.556;9.868;2022-08-19T00:30:45;13.03;;;11.67;;
20830;SDS011;10576;53.556;9.868;2022-08-19T00:33:11;12.30;;;11.10;;
20830;SDS011;10576;53.556;9.868;2022-08-19T00:35:38;12.67;;;11.03;;
20830;SDS011;10576;53.556;9.868;2022-08-19T00:38:04;12.83;;;10.83;;
20830;SDS011;10576;53.556;9.868;2022-08-19T00:40:31;11.82;;;10.63;;
20830;SDS011;10576;53.556;9.868;2022-08-19T00:42:57;13.70;;;12.00;;
20830;SDS011;10576;53.556;9.868;2022-08-19T00:45:25;12.73;;;11.43;;
20830;SDS011;10576;53.556;9.868;2022-08-19T00:47:55;13.65;;;11.88;;
20830;SDS011;10576;53.556;9.868;2022-08-19T00:50:21;16.60;;;14.30;;
20830;SDS011;10576;53.556;9.868;2022-08-19T00:52:48;16.77;;;14.52;;
20830;SDS011;10576;53.556;9.868;2022-08-19T00:55:16;18.95;;;16.00;;
20830;SDS011;10576;53.556;9.868;2022-08-19T00:57:50;21.90;;;18.10;;
20830;SDS011;10576;53.556;9.868;2022-08-19T01:00:20;21.75;;;17.88;;
20830;SDS011;10576;53.556;9.868;2022-08-19T01:02:48;23.65;;;18.83;;
20830;SDS011;10576;53.556;9.868;2022-08-19T01:05:15;24.33;;;20.07;;
20830;SDS011;10576;53.556;9.868;2022-08-19T01:07:46;25.13;;;20.17;;
20830;SDS011;10576;53.556;9.868;2022-08-19T01:10:14;26.13;;;20.38;;
20830;SDS011;10576;53.556;9.868;2022-08-19T01:12:43;25.00;;;20.73;;
20830;SDS011;10576;53.556;9.868;2022-08-19T01:15:11;26.08;;;21.13;;
20830;SDS011;10576;53.556;9.868;2022-08-19T01:17:40;25.77;;;22.07;;
20830;SDS011;10576;53.556;9.868;2022-08-19T01:20:11;24.25;;;20.50;;
20830;SDS011;10576;53.556;9.868;2022-08-19T01:25:10;24.23;;;20.20;;
20830;SDS011;10576;53.556;9.868;2022-08-19T01:27:41;23.37;;;20.50;;
20830;SDS011;10576;53.556;9.868;2022-08-19T01:30:09;25.15;;;20.73;;
20830;SDS011;10576;53.556;9.868;2022-08-19T01:32:39;26.10;;;21.17;;
20830;SDS011;10576;53.556;9.868;2022-08-19T01:35:05;25.77;;;21.15;;
20830;SDS011;10576;53.556;9.868;2022-08-19T01:37:41;23.17;;;19.50;;
20830;SDS011;10576;53.556;9.868;2022-08-19T01:40:09;23.95;;;19.48;;
20830;SDS011;10576;53.556;9.868;2022-08-19T01:42:36;26.08;;;20.55;;
20830;SDS011;10576;53.556;9.868;2022-08-19T01:45:02;26.10;;;20.73;;
20830;SDS011;10576;53.556;9.868;2022-08-19T01:47:28;26.17;;;20.55;;
20830;SDS011;10576;53.556;9.868;2022-08-19T01:49:54;25.13;;;20.02;;
20830;SDS011;10576;53.556;9.868;2022-08-19T01:52:20;25.75;;;20.48;;
20830;SDS011;10576;53.556;9.868;2022-08-19T01:54:46;26.10;;;20.20;;
20830;SDS011;10576;53.556;9.868;2022-08-19T01:57:12;27.23;;;21.33;;
20830;SDS011;10576;53.556;9.868;2022-08-19T01:59:40;28.42;;;21.17;;
20830;SDS011;10576;53.556;9.868;2022-08-19T02:02:07;30.13;;;21.98;;
20830;SDS011;10576;53.556;9.868;2022-08-19T02:04:33;30.00;;;22.83;;
20830;SDS011;10576;53.556;9.868;2022-08-19T02:07:00;33.38;;;23.50;;
20830;SDS011;10576;53.556;9.868;2022-08-19T02:09:26;33.83;;;23.10;;
20830;SDS011;10576;53.556;9.868;2022-08-19T02:11:52;33.23;;;23.37;;
20830;SDS011;10576;53.556;9.868;2022-08-19T02:14:18;35.80;;;22.85;;
20830;SDS011;10576;53.556;9.868;2022-08-19T02:16:44;35.28;;;24.17;;
20830;SDS011;10576;53.556;9.868;2022-08-19T02:19:09;37.72;;;24.70;;
20830;SDS011;10576;53.556;9.868;2022-08-19T02:21:35;39.00;;;24.93;;
20830;SDS011;10576;53.556;9.868;2022-08-19T02:24:01;40.28;;;25.38;;
20830;SDS011;10576;53.556;9.868;2022-08-19T02:26:27;41.13;;;25.02;;
20830;SDS011;10576;53.556;9.868;2022-08-19T02:28:53;40.22;;;25.17;;
20830;SDS011;10576;53.556;9.868;2022-08-19T02:31:21;40.88;;;25.60;;
20830;SDS011;10576;53.556;9.868;2022-08-19T02:33:48;45.00;;;26.35;;
20830;SDS011;10576;53.556;9.868;2022-08-19T02:36:15;46.67;;;28.03;;
20830;SDS011;10576;53.556;9.868;2022-08-19T02:38:42;47.30;;;27.90;;
20830;SDS011;10576;53.556;9.868;2022-08-19T02:41:28;46.20;;;29.20;;
20830;SDS011;10576;53.556;9.868;2022-08-19T02:43:57;46.42;;;29.48;;
20830;SDS011;10576;53.556;9.868;2022-08-19T02:46:30;48.78;;;29.80;;
20830;SDS011;10576;53.556;9.868;2022-08-19T02:49:00;49.85;;;30.00;;
20830;SDS011;10576;53.556;9.868;2022-08-19T02:51:40;49.00;;;30.08;;
20830;SDS011;10576;53.556;9.868;2022-08-19T02:54:08;52.35;;;30.88;;
20830;SDS011;10576;53.556;9.868;2022-08-19T02:56:36;53.10;;;31.40;;
20830;SDS011;10576;53.556;9.868;2022-08-19T02:59:03;52.88;;;32.95;;
20830;SDS011;10576;53.556;9.868;2022-08-19T03:01:36;51.55;;;33.22;;
20830;SDS011;10576;53.556;9.868;2022-08-19T03:04:04;57.00;;;34.20;;
20830;SDS011;10576;53.556;9.868;2022-08-19T03:06:31;56.38;;;34.45;;
20830;SDS011;10576;53.556;9.868;2022-08-19T03:09:00;51.40;;;33.57;;
20830;SDS011;10576;53.556;9.868;2022-08-19T03:11:28;52.20;;;32.90;;
20830;SDS011;10576;53.556;9.868;2022-08-19T03:13:55;56.10;;;34.38;;
20830;SDS011;10576;53.556;9.868;2022-08-19T03:16:26;52.90;;;33.15;;
20830;SDS011;10576;53.556;9.868;2022-08-19T03:18:53;55.07;;;33.50;;
20830;SDS011;10576;53.556;9.868;2022-08-19T03:21:23;49.55;;;32.08;;
20830;SDS011;10576;53.556;9.868;2022-08-19T03:23:50;56.17;;;33.30;;
20830;SDS011;10576;53.556;9.868;2022-08-19T03:26:19;52.25;;;32.40;;
20830;SDS011;10576;53.556;9.868;2022-08-19T03:28:45;50.88;;;31.63;;
20830;SDS011;10576;53.556;9.868;2022-08-19T03:31:14;50.40;;;31.35;;
20830;SDS011;10576;53.556;9.868;2022-08-19T03:33:42;47.80;;;30.63;;
20830;SDS011;10576;53.556;9.868;2022-08-19T03:36:16;48.80;;;30.95;;
20830;SDS011;10576;53.556;9.868;2022-08-19T03:38:47;49.67;;;31.60;;
20830;SDS011;10576;53.556;9.868;2022-08-19T03:41:15;49.78;;;30.25;;
20830;SDS011;10576;53.556;9.868;2022-08-19T03:43:44;47.25;;;31.25;;
20830;SDS011;10576;53.556;9.868;2022-08-19T03:46:13;45.85;;;31.25;;
20830;SDS011;10576;53.556;9.868;2022-08-19T03:48:41;44.97;;;31.02;;
20830;SDS011;10576;53.556;9.868;2022-08-19T03:51:14;42.55;;;31.02;;
20830;SDS011;10576;53.556;9.868;2022-08-19T03:53:46;43.13;;;30.02;;
20830;SDS011;10576;53.556;9.868;2022-08-19T03:56:12;44.87;;;30.53;;
20830;SDS011;10576;53.556;9.868;2022-08-19T03:58:39;43.47;;;29.97;;
20830;SDS011;10576;53.556;9.868;2022-08-19T04:01:09;41.28;;;28.98;;
20830;SDS011;10576;53.556;9.868;2022-08-19T04:03:37;40.15;;;28.17;;
20830;SDS011;10576;53.556;9.868;2022-08-19T04:06:11;40.35;;;28.42;;
20830;SDS011;10576;53.556;9.868;2022-08-19T04:08:39;37.63;;;27.85;;
20830;SDS011;10576;53.556;9.868;2022-08-19T04:11:09;41.28;;;26.95;;
20830;SDS011;10576;53.556;9.868;2022-08-19T04:13:36;39.90;;;26.60;;
20830;SDS011;10576;53.556;9.868;2022-08-19T04:16:03;37.22;;;25.23;;
20830;SDS011;10576;53.556;9.868;2022-08-19T04:18:29;36.67;;;25.02;;
20830;SDS011;10576;53.556;9.868;2022-08-19T04:20:55;35.70;;;25.17;;
20830;SDS011;10576;53.556;9.868;2022-08-19T04:23:22;34.58;;;25.40;;
20830;SDS011;10576;53.556;9.868;2022-08-19T04:25:48;39.03;;;24.95;;
20830;SDS011;10576;53.556;9.868;2022-08-19T04:28:14;34.92;;;24.30;;
20830;SDS011;10576;53.556;9.868;2022-08-19T04:30:45;33.65;;;23.83;;
20830;SDS011;10576;53.556;9.868;2022-08-19T04:33:13;35.33;;;23.85;;
20830;SDS011;10576;53.556;9.868;2022-08-19T04:35:42;35.40;;;24.60;;
20830;SDS011;10576;53.556;9.868;2022-08-19T04:38:10;31.90;;;22.73;;
20830;SDS011;10576;53.556;9.868;2022-08-19T04:40:40;37.47;;;23.80;;
20830;SDS011;10576;53.556;9.868;2022-08-19T04:43:26;32.77;;;23.23;;
20830;SDS011;10576;53.556;9.868;2022-08-19T04:45:55;34.75;;;23.65;;
20830;SDS011;10576;53.556;9.868;2022-08-19T04:48:21;32.17;;;24.58;;
20830;SDS011;10576;53.556;9.868;2022-08-19T04:50:51;34.17;;;23.75;;
20830;SDS011;10576;53.556;9.868;2022-08-19T04:53:22;32.33;;;24.15;;
20830;SDS011;10576;53.556;9.868;2022-08-19T04:55:53;32.42;;;23.90;;
20830;SDS011;10576;53.556;9.868;2022-08-19T04:58:21;36.30;;;24.75;;
20830;SDS011;10576;53.556;9.868;2022-08-19T05:00:47;36.55;;;23.85;;
20830;SDS011;10576;53.556;9.868;2022-08-19T05:03:13;32.08;;;23.33;;
20830;SDS011;10576;53.556;9.868;2022-08-19T05:05:42;36.70;;;23.00;;
20830;SDS011;10576;53.556;9.868;2022-08-19T05:08:09;34.20;;;22.85;;
20830;SDS011;10576;53.556;9.868;2022-08-19T05:10:37;32.47;;;22.63;;
20830;SDS011;10576;53.556;9.868;2022-08-19T05:13:04;32.00;;;22.05;;
20830;SDS011;10576;53.556;9.868;2022-08-19T05:15:30;31.27;;;21.83;;
20830;SDS011;10576;53.556;9.868;2022-08-19T05:17:56;31.58;;;21.65;;
20830;SDS011;10576;53.556;9.868;2022-08-19T05:20:40;28.55;;;21.30;;
20830;SDS011;10576;53.556;9.868;2022-08-19T05:23:24;28.50;;;20.55;;
20830;SDS011;10576;53.556;9.868;2022-08-19T05:25:50;29.60;;;21.08;;
20830;SDS011;10576;53.556;9.868;2022-08-19T05:28:17;29.08;;;20.95;;
20830;SDS011;10576;53.556;9.868;2022-08-19T05:30:43;29.25;;;19.60;;
20830;SDS011;10576;53.556;9.868;2022-08-19T05:33:10;32.65;;;20.80;;
20830;SDS011;10576;53.556;9.868;2022-08-19T05:35:37;27.75;;;19.63;;
20830;SDS011;10576;53.556;9.868;2022-08-19T05:38:04;29.65;;;19.23;;
20830;SDS011;10576;53.556;9.868;2022-08-19T05:40:34;29.45;;;19.67;;
20830;SDS011;10576;53.556;9.868;2022-08-19T05:43:01;25.92;;;18.80;;
20830;SDS011;10576;53.556;9.868;2022-08-19T05:45:28;30.42;;;18.92;;
20830;SDS011;10576;53.556;9.868;2022-08-19T05:47:54;28.50;;;18.60;;
20830;SDS011;10576;53.556;9.868;2022-08-19T05:50:20;27.63;;;18.40;;
20830;SDS011;10576;53.556;9.868;2022-08-19T05:52:46;24.17;;;17.80;;
20830;SDS011;10576;53.556;9.868;2022-08-19T05:55:12;26.20;;;17.83;;
20830;SDS011;10576;53.556;9.868;2022-08-19T05:57:38;26.47;;;17.60;;
20830;SDS011;10576;53.556;9.868;2022-08-19T06:00:04;24.45;;;17.40;;
20830;SDS011;10576;53.556;9.868;2022-08-19T06:02:36;23.88;;;16.58;;
20830;SDS011;10576;53.556;9.868;2022-08-19T06:05:02;23.80;;;16.35;;
20830;SDS011;10576;53.556;9.868;2022-08-19T06:07:32;23.05;;;16.58;;
20830;SDS011;10576;53.556;9.868;2022-08-19T06:09:58;22.98;;;16.13;;
20830;SDS011;10576;53.556;9.868;2022-08-19T06:12:24;25.20;;;16.65;;
20830;SDS011;10576;53.556;9.868;2022-08-19T06:14:58;23.38;;;15.63;;
20830;SDS011;10576;53.556;9.868;2022-08-19T06:17:24;23.23;;;16.43;;
20830;SDS011;10576;53.556;9.868;2022-08-19T06:19:51;24.73;;;15.45;;
20830;SDS011;10576;53.556;9.868;2022-08-19T06:22:17;22.27;;;14.27;;
20830;SDS011;10576;53.556;9.868;2022-08-19T06:24:43;23.17;;;13.65;;
20830;SDS011;10576;53.556;9.868;2022-08-19T06:27:08;22.17;;;13.93;;
20830;SDS011;10576;53.556;9.868;2022-08-19T06:29:34;18.23;;;12.80;;
20830;SDS011;10576;53.556;9.868;2022-08-19T06:32:01;19.17;;;13.60;;
20830;SDS011;10576;53.556;9.868;2022-08-19T06:34:29;21.92;;;13.27;;
20830;SDS011;10576;53.556;9.868;2022-08-19T06:36:57;16.52;;;12.20;;
20830;SDS011;10576;53.556;9.868;2022-08-19T06:39:27;19.70;;;11.60;;
20830;SDS011;10576;53.556;9.868;2022-08-19T06:41:56;19.80;;;11.70;;
20830;SDS011;10576;53.556;9.868;2022-08-19T06:44:25;17.65;;;11.73;;
20830;SDS011;10576;53.556;9.868;2022-08-19T06:46:55;14.55;;;10.70;;
20830;SDS011;10576;53.556;9.868;2022-08-19T06:49:21;18.70;;;10.68;;
20830;SDS011;10576;53.556;9.868;2022-08-19T06:51:48;15.82;;;10.10;;
20830;SDS011;10576;53.556;9.868;2022-08-19T06:54:15;12.45;;;10.32;;
20830;SDS011;10576;53.556;9.868;2022-08-19T06:56:42;17.27;;;10.13;;
20830;SDS011;10576;53.556;9.868;2022-08-19T06:59:13;15.48;;;10.20;;
20830;SDS011;10576;53.556;9.868;2022-08-19T07:01:42;14.90;;;9.70;;
20830;SDS011;10576;53.556;9.868;2022-08-19T07:04:12;14.97;;;9.77;;
20830;SDS011;10576;53.556;9.868;2022-08-19T07:06:40;13.88;;;10.95;;
20830;SDS011;10576;53.556;9.868;2022-08-19T07:09:07;16.35;;;10.18;;
20830;SDS011;10576;53.556;9.868;2022-08-19T07:11:34;18.05;;;11.10;;
20830;SDS011;10576;53.556;9.868;2022-08-19T07:14:00;18.53;;;10.80;;
20830;SDS011;10576;53.556;9.868;2022-08-19T07:16:26;12.80;;;9.90;;
20830;SDS011;10576;53.556;9.868;2022-08-19T07:18:52;13.27;;;9.70;;
20830;SDS011;10576;53.556;9.868;2022-08-19T07:21:19;14.60;;;9.97;;
20830;SDS011;10576;53.556;9.868;2022-08-19T07:23:49;13.68;;;10.10;;
20830;SDS011;10576;53.556;9.868;2022-08-19T07:26:20;14.13;;;9.27;;
20830;SDS011;10576;53.556;9.868;2022-08-19T07:28:48;14.93;;;8.90;;
20830;SDS011;10576;53.556;9.868;2022-08-19T07:31:16;14.20;;;8.00;;
20830;SDS011;10576;53.556;9.868;2022-08-19T07:33:45;12.35;;;7.80;;
20830;SDS011;10576;53.556;9.868;2022-08-19T07:36:13;12.30;;;7.87;;
20830;SDS011;10576;53.556;9.868;2022-08-19T07:38:42;12.20;;;8.10;;
20830;SDS011;10576;53.556;9.868;2022-08-19T07:41:10;11.88;;;7.97;;
20830;SDS011;10576;53.556;9.868;2022-08-19T07:43:37;11.20;;;7.97;;
20830;SDS011;10576;53.556;9.868;2022-08-19T07:46:04;10.63;;;7.87;;
20830;SDS011;10576;53.556;9.868;2022-08-19T07:48:29;10.25;;;7.40;;
20830;SDS011;10576;53.556;9.868;2022-08-19T07:50:57;12.15;;;8.30;;
20830;SDS011;10576;53.556;9.868;2022-08-19T07:53:26;11.07;;;8.88;;
20830;SDS011;10576;53.556;9.868;2022-08-19T07:55:53;11.30;;;8.43;;
20830;SDS011;10576;53.556;9.868;2022-08-19T07:58:19;14.23;;;9.00;;
20830;SDS011;10576;53.556;9.868;2022-08-19T08:00:47;13.85;;;9.20;;
20830;SDS011;10576;53.556;9.868;2022-08-19T08:03:15;10.32;;;8.50;;
20830;SDS011;10576;53.556;9.868;2022-08-19T08:05:42;10.43;;;8.20;;
20830;SDS011;10576;53.556;9.868;2022-08-19T08:08:27;11.02;;;8.88;;
20830;SDS011;10576;53.556;9.868;2022-08-19T08:10:56;12.93;;;8.70;;
20830;SDS011;10576;53.556;9.868;2022-08-19T08:13:22;10.55;;;8.77;;
20830;SDS011;10576;53.556;9.868;2022-08-19T08:15:48;10.82;;;9.18;;
20830;SDS011;10576;53.556;9.868;2022-08-19T08:18:14;14.25;;;10.00;;
20830;SDS011;10576;53.556;9.868;2022-08-19T08:20:40;13.47;;;9.70;;
20830;SDS011;10576;53.556;9.868;2022-08-19T08:23:06;15.10;;;10.27;;
20830;SDS011;10576;53.556;9.868;2022-08-19T08:25:54;14.27;;;10.80;;
20830;SDS011;10576;53.556;9.868;2022-08-19T08:28:21;15.17;;;9.97;;
20830;SDS011;10576;53.556;9.868;2022-08-19T08:30:48;12.93;;;10.95;;
20830;SDS011;10576;53.556;9.868;2022-08-19T08:33:22;14.95;;;11.38;;
20830;SDS011;10576;53.556;9.868;2022-08-19T08:35:50;18.73;;;11.52;;
20830;SDS011;10576;53.556;9.868;2022-08-19T08:38:17;17.00;;;11.75;;
20830;SDS011;10576;53.556;9.868;2022-08-19T08:40:47;19.08;;;12.45;;
20830;SDS011;10576;53.556;9.868;2022-08-19T08:45:53;18.52;;;12.60;;
20830;SDS011;10576;53.556;9.868;2022-08-19T08:48:32;16.85;;;11.35;;
20830;SDS011;10576;53.556;9.868;2022-08-19T08:51:40;14.27;;;10.82;;
20830;SDS011;10576;53.556;9.868;2022-08-19T08:54:14;14.60;;;11.20;;
20830;SDS011;10576;53.556;9.868;2022-08-19T08:56:43;20.90;;;12.57;;
20830;SDS011;10576;53.556;9.868;2022-08-19T08:59:12;15.67;;;12.93;;
20830;SDS011;10576;53.556;9.868;2022-08-19T09:01:46;16.17;;;13.55;;
20830;SDS011;10576;53.556;9.868;2022-08-19T09:04:13;14.98;;;12.50;;
20830;SDS011;10576;53.556;9.868;2022-08-19T09:09:18;16.38;;;12.25;;
20830;SDS011;10576;53.556;9.868;2022-08-19T09:11:57;14.38;;;11.85;;
20830;SDS011;10576;53.556;9.868;2022-08-19T09:17:16;12.98;;;11.55;;
20830;SDS011;10576;53.556;9.868;2022-08-19T09:19:50;15.57;;;11.20;;
20830;SDS011;10576;53.556;9.868;2022-08-19T09:22:18;15.52;;;11.40;;
20830;SDS011;10576;53.556;9.868;2022-08-19T09:24:47;15.93;;;11.60;;
20830;SDS011;10576;53.556;9.868;2022-08-19T09:27:19;14.40;;;11.93;;
20830;SDS011;10576;53.556;9.868;2022-08-19T09:29:46;13.43;;;11.60;;
20830;SDS011;10576;53.556;9.868;2022-08-19T09:32:13;15.75;;;11.52;;
20830;SDS011;10576;53.556;9.868;2022-08-19T09:34:39;16.57;;;12.80;;
20830;SDS011;10576;53.556;9.868;2022-08-19T09:37:05;14.83;;;11.93;;
20830;SDS011;10576;53.556;9.868;2022-08-19T09:39:31;15.68;;;12.07;;
20830;SDS011;10576;53.556;9.868;2022-08-19T09:41:57;16.00;;;11.47;;
20830;SDS011;10576;53.556;9.868;2022-08-19T09:44:22;13.87;;;11.23;;
20830;SDS011;10576;53.556;9.868;2022-08-19T09:46:48;15.70;;;12.10;;
20830;SDS011;10576;53.556;9.868;2022-08-19T09:49:16;15.00;;;11.43;;
20830;SDS011;10576;53.556;9.868;2022-08-19T09:51:44;16.05;;;12.90;;
20830;SDS011;10576;53.556;9.868;2022-08-19T09:54:12;16.77;;;13.15;;
20830;SDS011;10576;53.556;9.868;2022-08-19T09:56:39;16.85;;;14.02;;
20830;SDS011;10576;53.556;9.868;2022-08-19T09:59:05;17.75;;;15.40;;
20830;SDS011;10576;53.556;9.868;2022-08-19T10:01:31;17.03;;;14.77;;
20830;SDS011;10576;53.556;9.868;2022-08-19T10:03:58;19.98;;;16.10;;
20830;SDS011;10576;53.556;9.868;2022-08-19T10:06:25;18.73;;;15.77;;
20830;SDS011;10576;53.556;9.868;2022-08-19T10:08:55;17.60;;;14.88;;
20830;SDS011;10576;53.556;9.868;2022-08-19T10:11:21;20.73;;;15.25;;
20830;SDS011;10576;53.556;9.868;2022-08-19T10:13:47;19.75;;;16.48;;
20830;SDS011;10576;53.556;9.868;2022-08-19T10:16:16;18.85;;;15.98;;
20830;SDS011;10576;53.556;9.868;2022-08-19T10:18:44;21.13;;;14.93;;
20830;SDS011;10576;53.556;9.868;2022-08-19T10:21:14;19.17;;;15.80;;
20830;SDS011;10576;53.556;9.868;2022-08-19T10:23:43;21.30;;;15.35;;
20830;SDS011;10576;53.556;9.868;2022-08-19T10:26:11;20.02;;;16.48;;
20830;SDS011;10576;53.556;9.868;2022-08-19T10:28:41;22.02;;;16.60;;
20830;SDS011;10576;53.556;9.868;2022-08-19T10:31:08;20.33;;;16.40;;
20830;SDS011;10576;53.556;9.868;2022-08-19T10:33:36;20.92;;;16.17;;
20830;SDS011;10576;53.556;9.868;2022-08-19T10:36:04;20.45;;;16.40;;
20830;SDS011;10576;53.556;9.868;2022-08-19T10:38:42;18.45;;;16.15;;
20830;SDS011;10576;53.556;9.868;2022-08-19T10:41:15;20.35;;;15.85;;
20830;SDS011;10576;53.556;9.868;2022-08-19T10:43:43;20.02;;;16.13;;
20830;SDS011;10576;53.556;9.868;2022-08-19T10:46:11;18.73;;;16.02;;
20830;SDS011;10576;53.556;9.868;2022-08-19T10:48:38;21.27;;;15.90;;
20830;SDS011;10576;53.556;9.868;2022-08-19T10:51:04;19.80;;;15.87;;
20830;SDS011;10576;53.556;9.868;2022-08-19T10:53:50;20.67;;;16.92;;
20830;SDS011;10576;53.556;9.868;2022-08-19T10:56:16;22.83;;;17.27;;
20830;SDS011;10576;53.556;9.868;2022-08-19T10:59:02;23.65;;;18.30;;
20830;SDS011;10576;53.556;9.868;2022-08-19T11:01:29;24.17;;;17.52;;
20830;SDS011;10576;53.556;9.868;2022-08-19T11:03:59;23.65;;;17.70;;
20830;SDS011;10576;53.556;9.868;2022-08-19T11:06:26;19.83;;;17.38;;
20830;SDS011;10576;53.556;9.868;2022-08-19T11:08:55;21.15;;;16.90;;
20830;SDS011;10576;53.556;9.868;2022-08-19T11:11:21;20.00;;;16.83;;
20830;SDS011;10576;53.556;9.868;2022-08-19T11:13:47;20.08;;;16.40;;
20830;SDS011;10576;53.556;9.868;2022-08-19T11:16:18;19.70;;;16.87;;
20830;SDS011;10576;53.556;9.868;2022-08-19T11:18:50;18.57;;;15.80;;
20830;SDS011;10576;53.556;9.868;2022-08-19T11:21:24;18.75;;;16.42;;
20830;SDS011;10576;53.556;9.868;2022-08-19T11:23:54;21.05;;;16.30;;
20830;SDS011;10576;53.556;9.868;2022-08-19T11:26:22;19.70;;;16.23;;
20830;SDS011;10576;53.556;9.868;2022-08-19T11:28:49;18.70;;;16.35;;
20830;SDS011;10576;53.556;9.868;2022-08-19T11:31:20;21.23;;;15.75;;
20830;SDS011;10576;53.556;9.868;2022-08-19T11:33:47;21.00;;;16.05;;
20830;SDS011;10576;53.556;9.868;2022-08-19T11:36:17;18.83;;;16.17;;
20830;SDS011;10576;53.556;9.868;2022-08-19T11:38:45;18.10;;;15.50;;
20830;SDS011;10576;53.556;9.868;2022-08-19T11:41:13;18.50;;;15.85;;
20830;SDS011;10576;53.556;9.868;2022-08-19T11:43:40;17.02;;;14.75;;
20830;SDS011;10576;53.556;9.868;2022-08-19T11:46:11;17.30;;;15.60;;
20830;SDS011;10576;53.556;9.868;2022-08-19T11:48:38;17.43;;;15.63;;
20830;SDS011;10576;53.556;9.868;2022-08-19T11:51:13;18.20;;;15.35;;
20830;SDS011;10576;53.556;9.868;2022-08-19T11:53:42;17.42;;;15.65;;
20830;SDS011;10576;53.556;9.868;2022-08-19T11:56:08;20.25;;;16.77;;
20830;SDS011;10576;53.556;9.868;2022-08-19T11:58:34;17.52;;;15.73;;
20830;SDS011;10576;53.556;9.868;2022-08-19T12:01:00;17.75;;;15.50;;
20830;SDS011;10576;53.556;9.868;2022-08-19T12:03:29;17.17;;;15.45;;
20830;SDS011;10576;53.556;9.868;2022-08-19T12:05:55;16.83;;;15.00;;
20830;SDS011;10576;53.556;9.868;2022-08-19T12:08:21;15.95;;;14.32;;
20830;SDS011;10576;53.556;9.868;2022-08-19T12:10:47;15.50;;;14.10;;
20830;SDS011;10576;53.556;9.868;2022-08-19T12:13:13;17.15;;;15.45;;
20830;SDS011;10576;53.556;9.868;2022-08-19T12:15:43;15.48;;;13.88;;
20830;SDS011;10576;53.556;9.868;2022-08-19T12:18:10;16.15;;;13.95;;
20830;SDS011;10576;53.556;9.868;2022-08-19T12:20:39;15.47;;;13.87;;
20830;SDS011;10576;53.556;9.868;2022-08-19T12:23:06;16.05;;;14.55;;
20830;SDS011;10576;53.556;9.868;2022-08-19T12:25:34;15.83;;;14.23;;
20830;SDS011;10576;53.556;9.868;2022-08-19T12:28:13;15.70;;;14.25;;
20830;SDS011;10576;53.556;9.868;2022-08-19T12:30:38;17.17;;;15.47;;
20830;SDS011;10576;53.556;9.868;2022-08-19T12:33:04;15.40;;;13.80;;
20830;SDS011;10576;53.556;9.868;2022-08-19T12:35:30;15.23;;;13.73;;
20830;SDS011;10576;53.556;9.868;2022-08-19T12:37:55;15.93;;;14.40;;
20830;SDS011;10576;53.556;9.868;2022-08-19T12:40:21;15.68;;;14.07;;
20830;SDS011;10576;53.556;9.868;2022-08-19T12:42:47;14.63;;;13.23;;
20830;SDS011;10576;53.556;9.868;2022-08-19T12:45:14;14.82;;;13.35;;
20830;SDS011;10576;53.556;9.868;2022-08-19T12:47:40;14.67;;;13.17;;
20830;SDS011;10576;53.556;9.868;2022-08-19T12:50:06;14.52;;;13.13;;
20830;SDS011;10576;53.556;9.868;2022-08-19T12:52:33;15.75;;;14.25;;
20830;SDS011;10576;53.556;9.868;2022-08-19T12:55:06;17.05;;;15.35;;
20830;SDS011;10576;53.556;9.868;2022-08-19T12:57:33;16.02;;;14.45;;
20830;SDS011;10576;53.556;9.868;2022-08-19T13:00:03;16.60;;;15.00;;
20830;SDS011;10576;53.556;9.868;2022-08-19T13:02:33;15.80;;;14.20;;
20830;SDS011;10576;53.556;9.868;2022-08-19T13:05:00;16.48;;;14.82;;
20830;SDS011;10576;53.556;9.868;2022-08-19T13:07:25;16.58;;;15.18;;
20830;SDS011;10576;53.556;9.868;2022-08-19T13:09:51;16.42;;;15.02;;
20830;SDS011;10576;53.556;9.868;2022-08-19T13:12:17;15.30;;;13.90;;
20830;SDS011;10576;53.556;9.868;2022-08-19T13:14:45;15.18;;;13.68;;
20830;SDS011;10576;53.556;9.868;2022-08-19T13:17:15;15.30;;;13.90;;
20830;SDS011;10576;53.556;9.868;2022-08-19T13:19:40;15.20;;;13.80;;
20830;SDS011;10576;53.556;9.868;2022-08-19T13:22:06;14.83;;;13.53;;
20830;SDS011;10576;53.556;9.868;2022-08-19T13:24:32;15.05;;;13.65;;
20830;SDS011;10576;53.556;9.868;2022-08-19T13:26:58;15.73;;;14.23;;
20830;SDS011;10576;53.556;9.868;2022-08-19T13:29:27;16.02;;;14.63;;
20830;SDS011;10576;53.556;9.868;2022-08-19T13:32:11;17.33;;;15.82;;
20830;SDS011;10576;53.556;9.868;2022-08-19T13:34:55;17.07;;;15.47;;
20830;SDS011;10576;53.556;9.868;2022-08-19T13:37:21;16.93;;;15.33;;
20830;SDS011;10576;53.556;9.868;2022-08-19T13:40:06;15.65;;;14.25;;
20830;SDS011;10576;53.556;9.868;2022-08-19T13:42:37;17.55;;;15.80;;
20830;SDS011;10576;53.556;9.868;2022-08-19T13:45:06;17.20;;;15.50;;
20830;SDS011;10576;53.556;9.868;2022-08-19T13:47:33;16.80;;;15.30;;
20830;SDS011;10576;53.556;9.868;2022-08-19T13:50:00;17.02;;;15.40;;
20830;SDS011;10576;53.556;9.868;2022-08-19T13:52:28;17.90;;;16.30;;
20830;SDS011;10576;53.556;9.868;2022-08-19T13:54:54;16.30;;;14.75;;
20830;SDS011;10576;53.556;9.868;2022-08-19T13:57:20;17.50;;;15.90;;
20830;SDS011;10576;53.556;9.868;2022-08-19T13:59:45;17.77;;;15.97;;
20830;SDS011;10576;53.556;9.868;2022-08-19T14:02:11;17.73;;;16.02;;
20830;SDS011;10576;53.556;9.868;2022-08-19T14:04:37;17.10;;;15.50;;
20830;SDS011;10576;53.556;9.868;2022-08-19T14:07:03;16.63;;;15.02;;
20830;SDS011;10576;53.556;9.868;2022-08-19T14:09:29;17.05;;;15.45;;
20830;SDS011;10576;53.556;9.868;2022-08-19T14:11:55;15.27;;;13.80;;
20830;SDS011;10576;53.556;9.868;2022-08-19T14:14:21;15.67;;;14.13;;
20830;SDS011;10576;53.556;9.868;2022-08-19T14:16:47;15.35;;;13.90;;
20830;SDS011;10576;53.556;9.868;2022-08-19T14:19:13;14.88;;;13.52;;
20830;SDS011;10576;53.556;9.868;2022-08-19T14:21:39;13.50;;;12.30;;
20830;SDS011;10576;53.556;9.868;2022-08-19T14:24:06;14.65;;;13.20;;
20830;SDS011;10576;53.556;9.868;2022-08-19T14:26:32;15.35;;;14.05;;
20830;SDS011;10576;53.556;9.868;2022-08-19T14:28:58;14.63;;;13.33;;
20830;SDS011;10576;53.556;9.868;2022-08-19T14:31:24;15.63;;;14.13;;
20830;SDS011;10576;53.556;9.868;2022-08-19T14:33:50;15.68;;;14.18;;
20830;SDS011;10576;53.556;9.868;2022-08-19T14:36:17;15.30;;;13.90;;
20830;SDS011;10576;53.556;9.868;2022-08-19T14:38:45;15.10;;;13.60;;
20830;SDS011;10576;53.556;9.868;2022-08-19T14:43:48;16.83;;;15.23;;